sensor_id;sensor_type;location;lat;lon;timestamp;P1;durP1;ratioP1;P2;durP2;ratioP2
29006;SDS011;16104;48.642;9.008;2022-07-29T01:04:21;3.92;;;3.53;;
29006;SDS011;16104;48.642;9.008;2022-07-29T01:09:17;5.45;;;3.50;;
29006;SDS011;16104;48.642;9.008;2022-07-29T01:14:14;3.28;;;2.97;;
29006;SDS011;16104;48.642;9.008;2022-07-29T02:05:00;4.32;;;3.38;;
29006;SDS011;16104;48.642;9.008;2022-07-29T02:09:57;3.72;;;3.30;;
29006;SDS011;16104;48.642;9.008;2022-07-29T02:14:54;4.25;;;3.25;;
29006;SDS011;16104;48.642;9.008;2022-07-29T03:00:43;4.00;;;3.60;;
29006;SDS011;16104;48.642;9.008;2022-07-29T03:05:42;6.23;;;3.80;;
29006;SDS011;16104;48.642;9.008;2022-07-29T03:10:39;4.22;;;3.92;;
29006;SDS011;16104;48.642;9.008;2022-07-29T03:15:37;4.95;;;4.45;;
29006;SDS011;16104;48.642;9.008;2022-07-29T03:20:33;4.03;;;3.33;;
29006;SDS011;16104;48.642;9.008;2022-07-29T03:25:29;4.18;;;3.88;;
29006;SDS011;16104;48.642;9.008;2022-07-29T03:30:25;4.20;;;3.80;;
29006;SDS011;16104;48.642;9.008;2022-07-29T03:35:20;5.20;;;3.35;;
29006;SDS011;16104;48.642;9.008;2022-07-29T03:40:19;4.43;;;3.75;;
29006;SDS011;16104;48.642;9.008;2022-07-29T03:45:20;6.15;;;3.55;;
29006;SDS011;16104;48.642;9.008;2022-07-29T03:50:17;4.22;;;3.13;;
29006;SDS011;16104;48.642;9.008;2022-07-29T03:55:15;4.50;;;3.65;;
29006;SDS011;16104;48.642;9.008;2022-07-29T04:00:11;3.63;;;2.85;;
29006;SDS011;16104;48.642;9.008;2022-07-29T04:05:11;4.18;;;3.05;;
29006;SDS011;16104;48.642;9.008;2022-07-29T04:15:04;3.67;;;2.90;;
29006;SDS011;16104;48.642;9.008;2022-07-29T04:20:00;3.05;;;2.75;;
29006;SDS011;16104;48.642;9.008;2022-07-29T04:24:55;5.88;;;2.78;;
29006;SDS011;16104;48.642;9.008;2022-07-29T04:29:51;4.15;;;2.58;;
29006;SDS011;16104;48.642;9.008;2022-07-29T04:34:47;2.60;;;2.40;;
29006;SDS011;16104;48.642;9.008;2022-07-29T04:39:43;3.90;;;2.85;;
29006;SDS011;16104;48.642;9.008;2022-07-29T04:44:38;2.80;;;2.50;;
29006;SDS011;16104;48.642;9.008;2022-07-29T04:49:34;3.08;;;2.78;;
29006;SDS011;16104;48.642;9.008;2022-07-29T04:54:32;3.85;;;3.33;;
29006;SDS011;16104;48.642;9.008;2022-07-29T04:59:28;4.45;;;3.65;;
29006;SDS011;16104;48.642;9.008;2022-07-29T05:04:23;4.15;;;3.85;;
29006;SDS011;16104;48.642;9.008;2022-07-29T05:09:19;4.50;;;3.85;;
29006;SDS011;16104;48.642;9.008;2022-07-29T05:14:14;4.18;;;3.50;;
29006;SDS011;16104;48.642;9.008;2022-07-29T05:19:10;3.85;;;3.15;;
29006;SDS011;16104;48.642;9.008;2022-07-29T05:24:05;3.80;;;3.50;;
29006;SDS011;16104;48.642;9.008;2022-07-29T05:29:01;5.03;;;3.10;;
29006;SDS011;16104;48.642;9.008;2022-07-29T05:33:56;5.00;;;3.30;;
29006;SDS011;16104;48.642;9.008;2022-07-29T05:38:52;4.35;;;3.47;;
29006;SDS011;16104;48.642;9.008;2022-07-29T05:43:48;3.20;;;2.70;;
29006;SDS011;16104;48.642;9.008;2022-07-29T05:48:43;4.32;;;3.58;;
29006;SDS011;16104;48.642;9.008;2022-07-29T05:53:39;5.30;;;3.45;;
29006;SDS011;16104;48.642;9.008;2022-07-29T05:58:34;3.88;;;3.58;;
29006;SDS011;16104;48.642;9.008;2022-07-29T06:03:29;4.22;;;3.78;;
29006;SDS011;16104;48.642;9.008;2022-07-29T06:08:25;3.90;;;3.40;;
29006;SDS011;16104;48.642;9.008;2022-07-29T06:13:20;4.43;;;3.30;;
29006;SDS011;16104;48.642;9.008;2022-07-29T06:18:16;5.55;;;3.45;;
29006;SDS011;16104;48.642;9.008;2022-07-29T06:23:12;3.78;;;3.47;;
29006;SDS011;16104;48.642;9.008;2022-07-29T06:28:07;4.68;;;3.65;;
29006;SDS011;16104;48.642;9.008;2022-07-29T06:33:03;4.20;;;3.80;;
29006;SDS011;16104;48.642;9.008;2022-07-29T06:37:59;6.57;;;3.90;;
29006;SDS011;16104;48.642;9.008;2022-07-29T06:42:54;4.57;;;3.80;;
29006;SDS011;16104;48.642;9.008;2022-07-29T06:47:50;6.07;;;4.20;;
29006;SDS011;16104;48.642;9.008;2022-07-29T06:52:46;3.67;;;3.38;;
29006;SDS011;16104;48.642;9.008;2022-07-29T06:57:41;4.05;;;3.45;;
29006;SDS011;16104;48.642;9.008;2022-07-29T07:02:37;5.38;;;3.90;;
29006;SDS011;16104;48.642;9.008;2022-07-29T07:07:32;4.63;;;4.05;;
29006;SDS011;16104;48.642;9.008;2022-07-29T07:12:27;6.60;;;4.15;;
29006;SDS011;16104;48.642;9.008;2022-07-29T07:17:23;5.75;;;3.70;;
29006;SDS011;16104;48.642;9.008;2022-07-29T07:22:19;4.95;;;3.83;;
29006;SDS011;16104;48.642;9.008;2022-07-29T07:27:14;6.00;;;3.97;;
29006;SDS011;16104;48.642;9.008;2022-07-29T07:32:10;4.20;;;3.60;;
29006;SDS011;16104;48.642;9.008;2022-07-29T07:37:05;4.35;;;3.47;;
29006;SDS011;16104;48.642;9.008;2022-07-29T07:42:01;4.65;;;3.60;;
29006;SDS011;16104;48.642;9.008;2022-07-29T07:46:56;4.40;;;4.00;;
29006;SDS011;16104;48.642;9.008;2022-07-29T07:51:52;9.00;;;4.38;;
29006;SDS011;16104;48.642;9.008;2022-07-29T07:56:47;5.07;;;4.50;;
29006;SDS011;16104;48.642;9.008;2022-07-29T08:01:44;6.25;;;4.10;;
29006;SDS011;16104;48.642;9.008;2022-07-29T08:06:39;6.30;;;4.05;;
29006;SDS011;16104;48.642;9.008;2022-07-29T08:11:35;5.65;;;4.07;;
29006;SDS011;16104;48.642;9.008;2022-07-29T08:16:30;5.13;;;3.80;;
29006;SDS011;16104;48.642;9.008;2022-07-29T08:21:26;6.10;;;3.83;;
29006;SDS011;16104;48.642;9.008;2022-07-29T08:26:22;5.25;;;4.47;;
29006;SDS011;16104;48.642;9.008;2022-07-29T08:31:18;4.47;;;3.50;;
29006;SDS011;16104;48.642;9.008;2022-07-29T08:36:13;7.20;;;3.95;;
29006;SDS011;16104;48.642;9.008;2022-07-29T08:41:09;5.20;;;3.85;;
29006;SDS011;16104;48.642;9.008;2022-07-29T08:46:04;6.38;;;3.60;;
29006;SDS011;16104;48.642;9.008;2022-07-29T08:51:00;4.70;;;3.40;;
29006;SDS011;16104;48.642;9.008;2022-07-29T08:55:56;4.30;;;3.67;;
29006;SDS011;16104;48.642;9.008;2022-07-29T09:00:54;7.07;;;3.80;;
29006;SDS011;16104;48.642;9.008;2022-07-29T09:05:50;5.05;;;3.90;;
29006;SDS011;16104;48.642;9.008;2022-07-29T09:10:46;4.00;;;3.60;;
29006;SDS011;16104;48.642;9.008;2022-07-29T09:15:42;4.60;;;3.85;;
29006;SDS011;16104;48.642;9.008;2022-07-29T09:20:38;6.78;;;3.80;;
29006;SDS011;16104;48.642;9.008;2022-07-29T09:26:06;3.95;;;3.28;;
29006;SDS011;16104;48.642;9.008;2022-07-29T09:31:01;5.22;;;3.90;;
29006;SDS011;16104;48.642;9.008;2022-07-29T09:36:04;3.83;;;3.50;;
29006;SDS011;16104;48.642;9.008;2022-07-29T09:41:01;5.88;;;3.30;;
29006;SDS011;16104;48.642;9.008;2022-07-29T09:46:09;6.32;;;3.90;;
29006;SDS011;16104;48.642;9.008;2022-07-29T09:51:16;3.63;;;3.33;;
29006;SDS011;16104;48.642;9.008;2022-07-29T09:56:13;4.05;;;3.28;;
29006;SDS011;16104;48.642;9.008;2022-07-29T10:01:09;3.75;;;3.22;;
29006;SDS011;16104;48.642;9.008;2022-07-29T10:06:09;7.05;;;3.70;;
29006;SDS011;16104;48.642;9.008;2022-07-29T10:11:13;4.93;;;3.45;;
29006;SDS011;16104;48.642;9.008;2022-07-29T10:16:13;3.38;;;3.08;;
29006;SDS011;16104;48.642;9.008;2022-07-29T10:21:11;5.15;;;3.40;;
29006;SDS011;16104;48.642;9.008;2022-07-29T10:26:07;4.97;;;3.30;;
29006;SDS011;16104;48.642;9.008;2022-07-29T10:31:06;4.22;;;3.80;;
29006;SDS011;16104;48.642;9.008;2022-07-29T10:46:37;3.30;;;3.00;;
29006;SDS011;16104;48.642;9.008;2022-07-29T10:56:46;10.82;;;3.50;;
29006;SDS011;16104;48.642;9.008;2022-07-29T11:01:42;9.45;;;3.95;;
29006;SDS011;16104;48.642;9.008;2022-07-29T11:11:57;6.28;;;3.88;;
29006;SDS011;16104;48.642;9.008;2022-07-29T11:17:05;5.93;;;3.42;;
29006;SDS011;16104;48.642;9.008;2022-07-29T11:22:02;8.27;;;3.72;;
29006;SDS011;16104;48.642;9.008;2022-07-29T11:32:12;3.20;;;2.03;;
29006;SDS011;16104;48.642;9.008;2022-07-29T11:37:15;3.75;;;2.10;;
29006;SDS011;16104;48.642;9.008;2022-07-29T11:47:20;3.90;;;2.70;;
29006;SDS011;16104;48.642;9.008;2022-07-29T11:52:17;5.15;;;3.33;;
29006;SDS011;16104;48.642;9.008;2022-07-29T11:57:14;3.08;;;2.72;;
29006;SDS011;16104;48.642;9.008;2022-07-29T12:02:25;3.42;;;2.85;;
29006;SDS011;16104;48.642;9.008;2022-07-29T12:07:40;3.50;;;3.10;;
29006;SDS011;16104;48.642;9.008;2022-07-29T12:12:36;3.55;;;2.85;;
29006;SDS011;16104;48.642;9.008;2022-07-29T12:18:09;3.97;;;2.75;;
29006;SDS011;16104;48.642;9.008;2022-07-29T12:23:09;7.22;;;2.97;;
29006;SDS011;16104;48.642;9.008;2022-07-29T12:28:07;3.42;;;3.13;;
29006;SDS011;16104;48.642;9.008;2022-07-29T12:33:12;3.30;;;3.00;;
29006;SDS011;16104;48.642;9.008;2022-07-29T12:38:15;3.92;;;3.47;;
29006;SDS011;16104;48.642;9.008;2022-07-29T12:43:16;4.18;;;3.78;;
29006;SDS011;16104;48.642;9.008;2022-07-29T12:48:14;3.90;;;3.30;;
29006;SDS011;16104;48.642;9.008;2022-07-29T12:53:13;7.00;;;4.07;;
29006;SDS011;16104;48.642;9.008;2022-07-29T12:58:08;6.03;;;3.97;;
29006;SDS011;16104;48.642;9.008;2022-07-29T13:03:04;7.72;;;4.72;;
29006;SDS011;16104;48.642;9.008;2022-07-29T13:08:09;6.65;;;4.75;;
29006;SDS011;16104;48.642;9.008;2022-07-29T13:13:15;6.97;;;4.72;;
29006;SDS011;16104;48.642;9.008;2022-07-29T13:18:26;7.32;;;5.20;;
29006;SDS011;16104;48.642;9.008;2022-07-29T13:23:26;11.32;;;6.32;;
29006;SDS011;16104;48.642;9.008;2022-07-29T13:28:22;9.73;;;5.10;;
29006;SDS011;16104;48.642;9.008;2022-07-29T13:33:18;8.90;;;6.10;;
29006;SDS011;16104;48.642;9.008;2022-07-29T13:38:13;7.97;;;5.15;;
29006;SDS011;16104;48.642;9.008;2022-07-29T13:43:09;6.80;;;5.68;;
29006;SDS011;16104;48.642;9.008;2022-07-29T13:48:05;6.15;;;5.25;;
29006;SDS011;16104;48.642;9.008;2022-07-29T13:53:01;5.50;;;5.05;;
29006;SDS011;16104;48.642;9.008;2022-07-29T13:57:57;5.75;;;4.85;;
29006;SDS011;16104;48.642;9.008;2022-07-29T14:02:52;6.20;;;4.80;;
29006;SDS011;16104;48.642;9.008;2022-07-29T14:07:48;5.25;;;4.70;;
29006;SDS011;16104;48.642;9.008;2022-07-29T14:12:43;8.02;;;5.30;;
29006;SDS011;16104;48.642;9.008;2022-07-29T14:17:39;5.00;;;4.50;;
29006;SDS011;16104;48.642;9.008;2022-07-29T14:22:34;8.57;;;4.80;;
29006;SDS011;16104;48.642;9.008;2022-07-29T14:27:30;5.03;;;4.55;;
29006;SDS011;16104;48.642;9.008;2022-07-29T14:32:25;4.30;;;3.90;;
29006;SDS011;16104;48.642;9.008;2022-07-29T14:37:21;6.15;;;4.88;;
29006;SDS011;16104;48.642;9.008;2022-07-29T14:42:17;4.53;;;4.13;;
29006;SDS011;16104;48.642;9.008;2022-07-29T14:47:12;5.63;;;4.30;;
29006;SDS011;16104;48.642;9.008;2022-07-29T14:52:07;6.50;;;4.30;;
29006;SDS011;16104;48.642;9.008;2022-07-29T14:57:03;5.55;;;4.38;;
29006;SDS011;16104;48.642;9.008;2022-07-29T15:01:58;4.85;;;3.95;;
29006;SDS011;16104;48.642;9.008;2022-07-29T15:06:54;5.72;;;4.07;;
29006;SDS011;16104;48.642;9.008;2022-07-29T15:11:49;4.57;;;4.15;;
29006;SDS011;16104;48.642;9.008;2022-07-29T15:16:45;4.80;;;4.40;;
29006;SDS011;16104;48.642;9.008;2022-07-29T15:21:40;4.68;;;4.20;;
29006;SDS011;16104;48.642;9.008;2022-07-29T15:26:36;6.35;;;3.50;;
29006;SDS011;16104;48.642;9.008;2022-07-29T15:31:31;4.95;;;4.25;;
29006;SDS011;16104;48.642;9.008;2022-07-29T15:36:27;6.20;;;4.15;;
29006;SDS011;16104;48.642;9.008;2022-07-29T15:41:23;5.25;;;4.30;;
29006;SDS011;16104;48.642;9.008;2022-07-29T15:46:19;6.25;;;4.10;;
29006;SDS011;16104;48.642;9.008;2022-07-29T15:51:33;3.90;;;3.50;;
29006;SDS011;16104;48.642;9.008;2022-07-29T15:56:29;12.13;;;4.10;;
29006;SDS011;16104;48.642;9.008;2022-07-29T16:01:25;7.10;;;4.20;;
29006;SDS011;16104;48.642;9.008;2022-07-29T16:06:21;5.15;;;4.22;;
29006;SDS011;16104;48.642;9.008;2022-07-29T16:11:17;6.97;;;3.92;;
29006;SDS011;16104;48.642;9.008;2022-07-29T16:16:12;9.10;;;4.32;;
29006;SDS011;16104;48.642;9.008;2022-07-29T16:21:09;4.53;;;4.10;;
29006;SDS011;16104;48.642;9.008;2022-07-29T16:26:05;5.90;;;4.43;;
29006;SDS011;16104;48.642;9.008;2022-07-29T16:31:01;6.15;;;4.00;;
29006;SDS011;16104;48.642;9.008;2022-07-29T16:35:57;6.45;;;4.15;;
29006;SDS011;16104;48.642;9.008;2022-07-29T16:40:53;4.60;;;3.60;;
29006;SDS011;16104;48.642;9.008;2022-07-29T16:45:48;5.25;;;4.00;;
29006;SDS011;16104;48.642;9.008;2022-07-29T16:50:44;6.38;;;4.18;;
29006;SDS011;16104;48.642;9.008;2022-07-29T16:55:39;5.40;;;3.65;;
29006;SDS011;16104;48.642;9.008;2022-07-29T17:00:35;4.93;;;3.80;;
29006;SDS011;16104;48.642;9.008;2022-07-29T17:05:31;4.40;;;3.55;;
29006;SDS011;16104;48.642;9.008;2022-07-29T17:10:26;4.45;;;3.67;;
29006;SDS011;16104;48.642;9.008;2022-07-29T17:15:23;4.80;;;4.20;;
29006;SDS011;16104;48.642;9.008;2022-07-29T17:20:19;6.88;;;3.47;;
29006;SDS011;16104;48.642;9.008;2022-07-29T17:25:14;5.03;;;3.70;;
29006;SDS011;16104;48.642;9.008;2022-07-29T17:30:10;3.00;;;2.70;;
29006;SDS011;16104;48.642;9.008;2022-07-29T17:35:06;4.63;;;2.60;;
29006;SDS011;16104;48.642;9.008;2022-07-29T17:40:22;3.38;;;2.00;;
29006;SDS011;16104;48.642;9.008;2022-07-29T17:45:18;3.97;;;2.58;;
29006;SDS011;16104;48.642;9.008;2022-07-29T17:50:13;4.43;;;2.13;;
29006;SDS011;16104;48.642;9.008;2022-07-29T17:55:09;9.68;;;2.92;;
29006;SDS011;16104;48.642;9.008;2022-07-29T18:00:07;3.85;;;2.35;;
29006;SDS011;16104;48.642;9.008;2022-07-29T18:05:03;4.32;;;1.98;;
29006;SDS011;16104;48.642;9.008;2022-07-29T18:09:59;4.60;;;2.03;;
29006;SDS011;16104;48.642;9.008;2022-07-29T18:14:54;1.92;;;1.83;;
29006;SDS011;16104;48.642;9.008;2022-07-29T18:19:50;6.22;;;2.33;;
29006;SDS011;16104;48.642;9.008;2022-07-29T18:24:46;3.65;;;2.08;;
29006;SDS011;16104;48.642;9.008;2022-07-29T18:29:42;3.00;;;2.30;;
29006;SDS011;16104;48.642;9.008;2022-07-29T18:34:37;3.58;;;2.03;;
29006;SDS011;16104;48.642;9.008;2022-07-29T18:39:33;4.40;;;2.30;;
29006;SDS011;16104;48.642;9.008;2022-07-29T18:44:28;3.70;;;2.42;;
29006;SDS011;16104;48.642;9.008;2022-07-29T18:49:24;4.35;;;2.47;;
29006;SDS011;16104;48.642;9.008;2022-07-29T18:54:19;4.72;;;2.17;;
29006;SDS011;16104;48.642;9.008;2022-07-29T18:59:15;7.10;;;2.50;;
29006;SDS011;16104;48.642;9.008;2022-07-29T19:04:13;3.78;;;2.15;;
29006;SDS011;16104;48.642;9.008;2022-07-29T19:09:10;4.07;;;2.30;;
29006;SDS011;16104;48.642;9.008;2022-07-29T19:14:05;3.83;;;2.30;;
29006;SDS011;16104;48.642;9.008;2022-07-29T19:19:01;3.28;;;1.98;;
29006;SDS011;16104;48.642;9.008;2022-07-29T19:23:57;3.28;;;2.45;;
29006;SDS011;16104;48.642;9.008;2022-07-29T19:28:53;3.13;;;2.42;;
29006;SDS011;16104;48.642;9.008;2022-07-29T19:33:48;4.45;;;2.80;;
29006;SDS011;16104;48.642;9.008;2022-07-29T19:38:44;3.80;;;2.30;;
29006;SDS011;16104;48.642;9.008;2022-07-29T19:43:39;4.15;;;2.47;;
29006;SDS011;16104;48.642;9.008;2022-07-29T19:48:35;4.22;;;2.17;;
29006;SDS011;16104;48.642;9.008;2022-07-29T19:53:30;2.28;;;2.05;;
29006;SDS011;16104;48.642;9.008;2022-07-29T19:58:26;4.82;;;2.47;;
29006;SDS011;16104;48.642;9.008;2022-07-29T20:03:22;4.07;;;2.20;;
29006;SDS011;16104;48.642;9.008;2022-07-29T20:08:17;2.85;;;2.22;;
29006;SDS011;16104;48.642;9.008;2022-07-29T20:13:13;5.75;;;2.10;;
29006;SDS011;16104;48.642;9.008;2022-07-29T20:18:09;3.67;;;2.38;;
29006;SDS011;16104;48.642;9.008;2022-07-29T20:23:04;2.50;;;2.28;;
29006;SDS011;16104;48.642;9.008;2022-07-29T20:28:00;4.18;;;2.28;;
29006;SDS011;16104;48.642;9.008;2022-07-29T20:32:55;3.88;;;2.30;;
29006;SDS011;16104;48.642;9.008;2022-07-29T20:37:51;6.38;;;2.70;;
29006;SDS011;16104;48.642;9.008;2022-07-29T20:42:49;5.90;;;2.58;;
29006;SDS011;16104;48.642;9.008;2022-07-29T20:47:44;2.97;;;2.47;;
29006;SDS011;16104;48.642;9.008;2022-07-29T20:52:40;2.85;;;2.53;;
29006;SDS011;16104;48.642;9.008;2022-07-29T20:57:37;6.05;;;2.47;;
29006;SDS011;16104;48.642;9.008;2022-07-29T21:02:32;3.85;;;2.70;;
29006;SDS011;16104;48.642;9.008;2022-07-29T21:07:28;2.38;;;2.17;;
29006;SDS011;16104;48.642;9.008;2022-07-29T21:12:24;4.03;;;2.75;;
29006;SDS011;16104;48.642;9.008;2022-07-29T21:17:19;5.03;;;2.33;;
29006;SDS011;16104;48.642;9.008;2022-07-29T21:22:15;2.78;;;2.50;;
29006;SDS011;16104;48.642;9.008;2022-07-29T21:27:12;4.32;;;2.00;;
29006;SDS011;16104;48.642;9.008;2022-07-29T21:32:27;7.05;;;2.22;;
29006;SDS011;16104;48.642;9.008;2022-07-29T21:37:22;2.35;;;2.13;;
29006;SDS011;16104;48.642;9.008;2022-07-29T21:42:18;2.63;;;2.10;;
29006;SDS011;16104;48.642;9.008;2022-07-29T21:47:13;4.97;;;2.25;;
29006;SDS011;16104;48.642;9.008;2022-07-29T21:52:09;2.65;;;2.20;;
29006;SDS011;16104;48.642;9.008;2022-07-29T21:57:04;4.30;;;2.47;;
29006;SDS011;16104;48.642;9.008;2022-07-29T22:02:00;4.82;;;2.20;;
29006;SDS011;16104;48.642;9.008;2022-07-29T22:06:56;4.38;;;2.42;;
29006;SDS011;16104;48.642;9.008;2022-07-29T22:11:52;5.60;;;2.40;;
29006;SDS011;16104;48.642;9.008;2022-07-29T22:16:48;5.15;;;2.58;;
29006;SDS011;16104;48.642;9.008;2022-07-29T22:21:43;5.68;;;2.67;;
29006;SDS011;16104;48.642;9.008;2022-07-29T22:26:41;5.35;;;2.40;;
29006;SDS011;16104;48.642;9.008;2022-07-29T22:31:36;5.55;;;2.30;;
29006;SDS011;16104;48.642;9.008;2022-07-29T22:36:32;4.70;;;2.50;;
29006;SDS011;16104;48.642;9.008;2022-07-29T22:41:27;7.82;;;2.53;;
29006;SDS011;16104;48.642;9.008;2022-07-29T22:46:23;6.75;;;2.50;;
29006;SDS011;16104;48.642;9.008;2022-07-29T22:51:18;5.15;;;2.90;;
29006;SDS011;16104;48.642;9.008;2022-07-29T22:56:14;2.90;;;2.70;;
29006;SDS011;16104;48.642;9.008;2022-07-29T23:01:10;3.83;;;2.50;;
29006;SDS011;16104;48.642;9.008;2022-07-29T23:06:05;4.95;;;2.80;;
29006;SDS011;16104;48.642;9.008;2022-07-29T23:11:01;3.53;;;2.60;;
29006;SDS011;16104;48.642;9.008;2022-07-29T23:15:56;4.90;;;2.78;;
29006;SDS011;16104;48.642;9.008;2022-07-29T23:20:52;6.82;;;2.88;;
29006;SDS011;16104;48.642;9.008;2022-07-29T23:25:47;4.18;;;2.42;;
29006;SDS011;16104;48.642;9.008;2022-07-29T23:30:43;5.43;;;2.88;;
29006;SDS011;16104;48.642;9.008;2022-07-29T23:35:38;3.40;;;2.80;;
29006;SDS011;16104;48.642;9.008;2022-07-29T23:40:34;5.63;;;3.25;;
29006;SDS011;16104;48.642;9.008;2022-07-29T23:45:29;10.63;;;3.15;;
29006;SDS011;16104;48.642;9.008;2022-07-29T23:50:25;5.22;;;3.15;;
29006;SDS011;16104;48.642;9.008;2022-07-29T23:55:20;6.93;;;3.40;;
